sensor_id;sensor_type;location;lat;lon;timestamp;temperature;humidity
75281;HTU21D;63874;47.230;39.620;2023-05-15T00:00:31;14.24;72.44
75281;HTU21D;63874;47.230;39.620;2023-05-15T00:02:57;14.26;72.35
75281;HTU21D;63874;47.230;39.620;2023-05-15T00:05:22;14.25;72.22
75281;HTU21D;63874;47.230;39.620;2023-05-15T00:07:48;14.23;72.16
75281;HTU21D;63874;47.230;39.620;2023-05-15T00:10:14;14.23;72.04
75281;HTU21D;63874;47.230;39.620;2023-05-15T00:12:40;14.21;71.93
75281;HTU21D;63874;47.230;39.620;2023-05-15T00:15:07;14.18;72.03
75281;HTU21D;63874;47.230;39.620;2023-05-15T00:17:32;14.15;71.80
75281;HTU21D;63874;47.230;39.620;2023-05-15T00:19:58;14.14;71.77
75281;HTU21D;63874;47.230;39.620;2023-05-15T00:22:25;14.11;71.82
75281;HTU21D;63874;47.230;39.620;2023-05-15T00:24:51;14.09;71.95
75281;HTU21D;63874;47.230;39.620;2023-05-15T00:27:17;14.05;71.93
75281;HTU21D;63874;47.230;39.620;2023-05-15T00:29:43;14.01;72.00
75281;HTU21D;63874;47.230;39.620;2023-05-15T00:32:09;13.97;72.01
75281;HTU21D;63874;47.230;39.620;2023-05-15T00:34:34;13.93;72.01
75281;HTU21D;63874;47.230;39.620;2023-05-15T00:37:00;13.89;72.09
75281;HTU21D;63874;47.230;39.620;2023-05-15T00:39:26;13.84;72.15
75281;HTU21D;63874;47.230;39.620;2023-05-15T00:41:54;13.80;72.27
75281;HTU21D;63874;47.230;39.620;2023-05-15T00:44:22;13.79;72.45
75281;HTU21D;63874;47.230;39.620;2023-05-15T00:46:48;13.80;72.56
75281;HTU21D;63874;47.230;39.620;2023-05-15T00:49:16;13.80;72.70
75281;HTU21D;63874;47.230;39.620;2023-05-15T00:51:43;13.79;72.91
75281;HTU21D;63874;47.230;39.620;2023-05-15T00:54:09;13.79;73.22
75281;HTU21D;63874;47.230;39.620;2023-05-15T00:56:35;13.79;73.38
75281;HTU21D;63874;47.230;39.620;2023-05-15T00:59:03;13.81;73.61
75281;HTU21D;63874;47.230;39.620;2023-05-15T01:01:29;13.81;73.86
75281;HTU21D;63874;47.230;39.620;2023-05-15T01:04:02;13.79;74.06
75281;HTU21D;63874;47.230;39.620;2023-05-15T01:06:29;13.76;74.14
75281;HTU21D;63874;47.230;39.620;2023-05-15T01:08:58;13.76;74.22
75281;HTU21D;63874;47.230;39.620;2023-05-15T01:11:27;13.76;74.37
75281;HTU21D;63874;47.230;39.620;2023-05-15T01:14:04;13.73;74.41
75281;HTU21D;63874;47.230;39.620;2023-05-15T01:16:31;13.68;74.64
75281;HTU21D;63874;47.230;39.620;2023-05-15T01:18:57;13.66;74.83
75281;HTU21D;63874;47.230;39.620;2023-05-15T01:32:33;13.48;75.02
75281;HTU21D;63874;47.230;39.620;2023-05-15T01:37:40;13.45;75.29
75281;HTU21D;63874;47.230;39.620;2023-05-15T01:40:09;13.41;75.41
75281;HTU21D;63874;47.230;39.620;2023-05-15T01:42:39;13.38;75.59
75281;HTU21D;63874;47.230;39.620;2023-05-15T01:45:10;13.37;75.61
75281;HTU21D;63874;47.230;39.620;2023-05-15T01:47:55;13.35;75.57
75281;HTU21D;63874;47.230;39.620;2023-05-15T01:50:21;13.32;75.58
75281;HTU21D;63874;47.230;39.620;2023-05-15T01:52:51;13.30;75.71
75281;HTU21D;63874;47.230;39.620;2023-05-15T01:55:20;13.29;75.66
75281;HTU21D;63874;47.230;39.620;2023-05-15T01:57:49;13.29;75.67
75281;HTU21D;63874;47.230;39.620;2023-05-15T02:00:16;13.26;75.68
75281;HTU21D;63874;47.230;39.620;2023-05-15T02:02:42;13.25;75.73
75281;HTU21D;63874;47.230;39.620;2023-05-15T02:05:11;13.24;75.86
75281;HTU21D;63874;47.230;39.620;2023-05-15T02:07:39;13.25;75.83
75281;HTU21D;63874;47.230;39.620;2023-05-15T02:10:07;13.27;75.80
75281;HTU21D;63874;47.230;39.620;2023-05-15T02:12:33;13.30;75.52
75281;HTU21D;63874;47.230;39.620;2023-05-15T02:15:02;13.30;75.42
75281;HTU21D;63874;47.230;39.620;2023-05-15T02:17:28;13.30;75.27
75281;HTU21D;63874;47.230;39.620;2023-05-15T02:19:54;13.30;75.16
75281;HTU21D;63874;47.230;39.620;2023-05-15T02:22:20;13.31;75.10
75281;HTU21D;63874;47.230;39.620;2023-05-15T02:24:46;13.31;74.96
75281;HTU21D;63874;47.230;39.620;2023-05-15T02:33:06;13.37;74.60
75281;HTU21D;63874;47.230;39.620;2023-05-15T02:35:46;13.37;74.50
75281;HTU21D;63874;47.230;39.620;2023-05-15T02:38:18;13.35;74.51
75281;HTU21D;63874;47.230;39.620;2023-05-15T02:40:46;13.33;74.54
75281;HTU21D;63874;47.230;39.620;2023-05-15T02:43:13;13.35;74.59
75281;HTU21D;63874;47.230;39.620;2023-05-15T02:45:40;13.38;74.57
75281;HTU21D;63874;47.230;39.620;2023-05-15T02:48:07;13.43;74.54
75281;HTU21D;63874;47.230;39.620;2023-05-15T02:50:33;13.47;74.48
75281;HTU21D;63874;47.230;39.620;2023-05-15T02:53:06;13.51;74.51
75281;HTU21D;63874;47.230;39.620;2023-05-15T02:55:33;13.53;74.45
75281;HTU21D;63874;47.230;39.620;2023-05-15T02:57:58;13.58;74.51
75281;HTU21D;63874;47.230;39.620;2023-05-15T03:00:24;13.65;74.44
75281;HTU21D;63874;47.230;39.620;2023-05-15T03:02:50;13.70;74.40
75281;HTU21D;63874;47.230;39.620;2023-05-15T03:05:16;13.77;74.37
75281;HTU21D;63874;47.230;39.620;2023-05-15T03:07:42;13.84;74.33
75281;HTU21D;63874;47.230;39.620;2023-05-15T03:10:08;13.92;73.73
75281;HTU21D;63874;47.230;39.620;2023-05-15T03:12:34;13.99;73.48
75281;HTU21D;63874;47.230;39.620;2023-05-15T03:15:00;14.09;73.38
75281;HTU21D;63874;47.230;39.620;2023-05-15T03:17:26;14.18;73.32
75281;HTU21D;63874;47.230;39.620;2023-05-15T03:19:52;14.26;73.28
75281;HTU21D;63874;47.230;39.620;2023-05-15T03:22:18;14.33;73.12
75281;HTU21D;63874;47.230;39.620;2023-05-15T03:24:44;14.39;72.22
75281;HTU21D;63874;47.230;39.620;2023-05-15T03:27:10;14.50;71.49
75281;HTU21D;63874;47.230;39.620;2023-05-15T03:29:36;14.58;71.10
75281;HTU21D;63874;47.230;39.620;2023-05-15T03:32:02;14.68;70.02
75281;HTU21D;63874;47.230;39.620;2023-05-15T03:34:28;14.79;69.24
75281;HTU21D;63874;47.230;39.620;2023-05-15T03:36:54;14.87;68.91
75281;HTU21D;63874;47.230;39.620;2023-05-15T03:39:20;14.96;68.30
75281;HTU21D;63874;47.230;39.620;2023-05-15T03:41:47;15.06;68.04
75281;HTU21D;63874;47.230;39.620;2023-05-15T03:44:13;15.14;67.72
75281;HTU21D;63874;47.230;39.620;2023-05-15T03:46:39;15.22;67.63
75281;HTU21D;63874;47.230;39.620;2023-05-15T03:49:05;15.30;67.32
75281;HTU21D;63874;47.230;39.620;2023-05-15T03:51:36;15.39;66.94
75281;HTU21D;63874;47.230;39.620;2023-05-15T03:54:02;15.48;66.40
75281;HTU21D;63874;47.230;39.620;2023-05-15T03:56:31;15.58;66.08
75281;HTU21D;63874;47.230;39.620;2023-05-15T03:58:57;15.69;65.80
75281;HTU21D;63874;47.230;39.620;2023-05-15T04:01:23;15.81;65.32
75281;HTU21D;63874;47.230;39.620;2023-05-15T04:03:49;15.90;64.38
75281;HTU21D;63874;47.230;39.620;2023-05-15T04:06:15;16.00;63.85
75281;HTU21D;63874;47.230;39.620;2023-05-15T04:08:41;16.10;63.50
75281;HTU21D;63874;47.230;39.620;2023-05-15T04:11:08;16.17;63.12
75281;HTU21D;63874;47.230;39.620;2023-05-15T04:13:34;16.27;62.77
75281;HTU21D;63874;47.230;39.620;2023-05-15T04:16:00;16.35;62.70
75281;HTU21D;63874;47.230;39.620;2023-05-15T04:18:26;16.45;62.57
75281;HTU21D;63874;47.230;39.620;2023-05-15T04:20:52;16.58;62.30
75281;HTU21D;63874;47.230;39.620;2023-05-15T04:23:18;16.69;62.05
75281;HTU21D;63874;47.230;39.620;2023-05-15T04:25:44;16.82;61.87
75281;HTU21D;63874;47.230;39.620;2023-05-15T04:28:14;16.98;61.69
75281;HTU21D;63874;47.230;39.620;2023-05-15T04:30:40;17.11;61.18
75281;HTU21D;63874;47.230;39.620;2023-05-15T04:33:06;17.28;60.79
75281;HTU21D;63874;47.230;39.620;2023-05-15T04:35:32;17.40;60.36
75281;HTU21D;63874;47.230;39.620;2023-05-15T04:37:58;17.54;60.04
75281;HTU21D;63874;47.230;39.620;2023-05-15T04:40:24;17.68;59.07
75281;HTU21D;63874;47.230;39.620;2023-05-15T04:42:50;17.82;58.83
75281;HTU21D;63874;47.230;39.620;2023-05-15T04:45:15;17.96;58.57
75281;HTU21D;63874;47.230;39.620;2023-05-15T04:47:41;18.12;58.41
75281;HTU21D;63874;47.230;39.620;2023-05-15T04:50:07;18.28;57.55
75281;HTU21D;63874;47.230;39.620;2023-05-15T04:52:33;18.39;56.41
75281;HTU21D;63874;47.230;39.620;2023-05-15T04:54:59;18.49;56.44
75281;HTU21D;63874;47.230;39.620;2023-05-15T04:57:25;18.59;56.40
75281;HTU21D;63874;47.230;39.620;2023-05-15T04:59:51;18.74;56.22
75281;HTU21D;63874;47.230;39.620;2023-05-15T05:02:21;18.93;56.23
75281;HTU21D;63874;47.230;39.620;2023-05-15T05:04:47;19.11;55.83
75281;HTU21D;63874;47.230;39.620;2023-05-15T05:07:13;19.28;55.44
75281;HTU21D;63874;47.230;39.620;2023-05-15T05:09:39;19.50;55.13
75281;HTU21D;63874;47.230;39.620;2023-05-15T05:12:08;19.82;54.79
75281;HTU21D;63874;47.230;39.620;2023-05-15T05:14:34;20.19;54.10
75281;HTU21D;63874;47.230;39.620;2023-05-15T05:17:00;20.47;53.20
75281;HTU21D;63874;47.230;39.620;2023-05-15T05:19:26;20.58;52.49
75281;HTU21D;63874;47.230;39.620;2023-05-15T05:21:54;20.59;52.25
75281;HTU21D;63874;47.230;39.620;2023-05-15T05:24:23;20.63;52.24
75281;HTU21D;63874;47.230;39.620;2023-05-15T05:26:49;20.68;51.55
75281;HTU21D;63874;47.230;39.620;2023-05-15T05:29:15;20.71;51.30
75281;HTU21D;63874;47.230;39.620;2023-05-15T05:31:41;20.73;51.25
75281;HTU21D;63874;47.230;39.620;2023-05-15T05:34:06;20.79;51.06
75281;HTU21D;63874;47.230;39.620;2023-05-15T05:36:33;20.86;50.94
75281;HTU21D;63874;47.230;39.620;2023-05-15T05:39:01;20.96;50.77
75281;HTU21D;63874;47.230;39.620;2023-05-15T05:41:29;21.07;50.12
75281;HTU21D;63874;47.230;39.620;2023-05-15T05:43:54;21.16;49.87
75281;HTU21D;63874;47.230;39.620;2023-05-15T05:46:20;21.24;49.95
75281;HTU21D;63874;47.230;39.620;2023-05-15T05:48:46;21.35;49.64
75281;HTU21D;63874;47.230;39.620;2023-05-15T05:51:12;21.48;49.55
75281;HTU21D;63874;47.230;39.620;2023-05-15T05:53:38;21.59;48.86
75281;HTU21D;63874;47.230;39.620;2023-05-15T05:56:04;21.64;48.55
75281;HTU21D;63874;47.230;39.620;2023-05-15T05:58:30;21.72;47.90
75281;HTU21D;63874;47.230;39.620;2023-05-15T06:00:55;21.77;47.48
75281;HTU21D;63874;47.230;39.620;2023-05-15T06:03:22;21.82;47.23
75281;HTU21D;63874;47.230;39.620;2023-05-15T06:05:48;21.89;46.60
75281;HTU21D;63874;47.230;39.620;2023-05-15T06:08:14;21.95;46.21
75281;HTU21D;63874;47.230;39.620;2023-05-15T06:10:40;22.01;46.46
75281;HTU21D;63874;47.230;39.620;2023-05-15T06:13:06;22.08;46.65
75281;HTU21D;63874;47.230;39.620;2023-05-15T06:15:32;22.17;46.82
75281;HTU21D;63874;47.230;39.620;2023-05-15T06:17:58;22.31;46.53
75281;HTU21D;63874;47.230;39.620;2023-05-15T06:20:24;22.39;46.34
75281;HTU21D;63874;47.230;39.620;2023-05-15T06:22:50;22.42;45.93
75281;HTU21D;63874;47.230;39.620;2023-05-15T06:25:16;22.38;46.21
75281;HTU21D;63874;47.230;39.620;2023-05-15T06:27:43;22.37;46.73
75281;HTU21D;63874;47.230;39.620;2023-05-15T06:30:09;22.37;47.00
75281;HTU21D;63874;47.230;39.620;2023-05-15T06:32:35;22.43;46.77
75281;HTU21D;63874;47.230;39.620;2023-05-15T06:35:04;22.40;46.81
75281;HTU21D;63874;47.230;39.620;2023-05-15T06:37:30;22.37;46.29
75281;HTU21D;63874;47.230;39.620;2023-05-15T06:39:56;22.31;46.67
75281;HTU21D;63874;47.230;39.620;2023-05-15T06:42:22;22.27;47.08
75281;HTU21D;63874;47.230;39.620;2023-05-15T06:44:48;22.29;47.41
75281;HTU21D;63874;47.230;39.620;2023-05-15T06:47:16;22.39;47.21
75281;HTU21D;63874;47.230;39.620;2023-05-15T06:49:42;22.48;47.44
75281;HTU21D;63874;47.230;39.620;2023-05-15T06:52:08;22.57;46.92
75281;HTU21D;63874;47.230;39.620;2023-05-15T06:54:34;22.64;46.55
75281;HTU21D;63874;47.230;39.620;2023-05-15T06:57:00;22.69;45.95
75281;HTU21D;63874;47.230;39.620;2023-05-15T06:59:25;22.71;44.81
75281;HTU21D;63874;47.230;39.620;2023-05-15T07:01:51;22.76;44.12
75281;HTU21D;63874;47.230;39.620;2023-05-15T07:04:17;22.82;44.01
75281;HTU21D;63874;47.230;39.620;2023-05-15T07:06:43;22.91;43.38
75281;HTU21D;63874;47.230;39.620;2023-05-15T07:09:09;22.99;42.09
75281;HTU21D;63874;47.230;39.620;2023-05-15T07:11:35;23.08;42.00
75281;HTU21D;63874;47.230;39.620;2023-05-15T07:14:04;23.12;41.26
75281;HTU21D;63874;47.230;39.620;2023-05-15T07:16:30;23.18;41.67
75281;HTU21D;63874;47.230;39.620;2023-05-15T07:18:56;23.25;40.91
75281;HTU21D;63874;47.230;39.620;2023-05-15T07:21:22;23.26;39.59
75281;HTU21D;63874;47.230;39.620;2023-05-15T07:23:47;23.27;39.36
75281;HTU21D;63874;47.230;39.620;2023-05-15T07:26:13;23.24;39.76
75281;HTU21D;63874;47.230;39.620;2023-05-15T07:28:39;23.27;39.75
75281;HTU21D;63874;47.230;39.620;2023-05-15T07:31:06;23.29;40.07
75281;HTU21D;63874;47.230;39.620;2023-05-15T07:33:32;23.36;39.36
75281;HTU21D;63874;47.230;39.620;2023-05-15T07:35:58;23.40;39.34
75281;HTU21D;63874;47.230;39.620;2023-05-15T07:38:24;23.46;39.37
75281;HTU21D;63874;47.230;39.620;2023-05-15T07:40:50;23.60;38.59
75281;HTU21D;63874;47.230;39.620;2023-05-15T07:43:16;23.67;38.17
75281;HTU21D;63874;47.230;39.620;2023-05-15T07:45:42;23.71;38.23
75281;HTU21D;63874;47.230;39.620;2023-05-15T07:48:18;23.74;38.59
75281;HTU21D;63874;47.230;39.620;2023-05-15T07:50:46;23.84;38.67
75281;HTU21D;63874;47.230;39.620;2023-05-15T07:53:12;23.92;38.65
75281;HTU21D;63874;47.230;39.620;2023-05-15T07:55:42;24.08;38.19
75281;HTU21D;63874;47.230;39.620;2023-05-15T07:58:08;24.17;38.27
75281;HTU21D;63874;47.230;39.620;2023-05-15T08:00:34;24.29;37.77
75281;HTU21D;63874;47.230;39.620;2023-05-15T08:03:00;24.33;37.34
75281;HTU21D;63874;47.230;39.620;2023-05-15T08:05:26;24.33;37.27
75281;HTU21D;63874;47.230;39.620;2023-05-15T08:07:53;24.32;37.30
75281;HTU21D;63874;47.230;39.620;2023-05-15T08:10:19;24.34;37.40
75281;HTU21D;63874;47.230;39.620;2023-05-15T08:12:45;24.35;37.15
75281;HTU21D;63874;47.230;39.620;2023-05-15T08:15:12;24.38;36.87
75281;HTU21D;63874;47.230;39.620;2023-05-15T08:17:38;24.40;36.45
75281;HTU21D;63874;47.230;39.620;2023-05-15T08:20:04;24.44;36.43
75281;HTU21D;63874;47.230;39.620;2023-05-15T08:22:30;24.48;34.99
75281;HTU21D;63874;47.230;39.620;2023-05-15T08:24:56;24.53;34.68
75281;HTU21D;63874;47.230;39.620;2023-05-15T08:27:22;24.49;34.84
75281;HTU21D;63874;47.230;39.620;2023-05-15T08:29:48;24.47;34.62
75281;HTU21D;63874;47.230;39.620;2023-05-15T08:32:14;24.53;34.82
75281;HTU21D;63874;47.230;39.620;2023-05-15T08:34:40;24.62;34.84
75281;HTU21D;63874;47.230;39.620;2023-05-15T08:37:06;24.70;34.79
75281;HTU21D;63874;47.230;39.620;2023-05-15T08:39:32;24.73;33.52
75281;HTU21D;63874;47.230;39.620;2023-05-15T08:42:07;24.75;33.12
75281;HTU21D;63874;47.230;39.620;2023-05-15T08:44:35;24.82;32.42
75281;HTU21D;63874;47.230;39.620;2023-05-15T08:47:01;24.90;32.99
75281;HTU21D;63874;47.230;39.620;2023-05-15T08:52:06;25.08;31.80
75281;HTU21D;63874;47.230;39.620;2023-05-15T08:54:32;25.16;31.83
75281;HTU21D;63874;47.230;39.620;2023-05-15T08:56:59;25.19;32.10
75281;HTU21D;63874;47.230;39.620;2023-05-15T08:59:27;25.18;32.22
75281;HTU21D;63874;47.230;39.620;2023-05-15T09:01:53;25.12;32.54
75281;HTU21D;63874;47.230;39.620;2023-05-15T09:04:20;25.05;32.82
75281;HTU21D;63874;47.230;39.620;2023-05-15T09:06:46;25.09;33.27
75281;HTU21D;63874;47.230;39.620;2023-05-15T09:09:12;25.30;33.47
75281;HTU21D;63874;47.230;39.620;2023-05-15T09:11:45;25.63;33.57
75281;HTU21D;63874;47.230;39.620;2023-05-15T09:14:12;25.99;31.81
75281;HTU21D;63874;47.230;39.620;2023-05-15T09:16:38;26.02;31.17
75281;HTU21D;63874;47.230;39.620;2023-05-15T09:19:05;25.86;30.99
75281;HTU21D;63874;47.230;39.620;2023-05-15T09:21:32;25.66;30.99
75281;HTU21D;63874;47.230;39.620;2023-05-15T09:24:24;25.44;31.53
75281;HTU21D;63874;47.230;39.620;2023-05-15T09:27:08;25.61;32.44
75281;HTU21D;63874;47.230;39.620;2023-05-15T09:29:37;27.16;30.88
75281;HTU21D;63874;47.230;39.620;2023-05-15T09:32:09;29.44;28.45
75281;HTU21D;63874;47.230;39.620;2023-05-15T09:34:42;31.50;24.91
75281;HTU21D;63874;47.230;39.620;2023-05-15T09:37:09;31.69;23.73
75281;HTU21D;63874;47.230;39.620;2023-05-15T09:39:43;30.85;23.95
75281;HTU21D;63874;47.230;39.620;2023-05-15T09:42:13;29.74;24.87
75281;HTU21D;63874;47.230;39.620;2023-05-15T09:44:41;28.75;25.97
75281;HTU21D;63874;47.230;39.620;2023-05-15T09:47:11;28.05;27.16
75281;HTU21D;63874;47.230;39.620;2023-05-15T09:49:37;27.71;27.42
75281;HTU21D;63874;47.230;39.620;2023-05-15T09:52:07;28.49;27.46
75281;HTU21D;63874;47.230;39.620;2023-05-15T09:54:34;30.59;25.48
75281;HTU21D;63874;47.230;39.620;2023-05-15T09:57:12;32.54;22.85
75281;HTU21D;63874;47.230;39.620;2023-05-15T09:59:44;32.24;21.67
75281;HTU21D;63874;47.230;39.620;2023-05-15T10:02:13;31.45;22.53
75281;HTU21D;63874;47.230;39.620;2023-05-15T10:04:53;30.54;23.14
75281;HTU21D;63874;47.230;39.620;2023-05-15T10:07:27;29.65;23.92
75281;HTU21D;63874;47.230;39.620;2023-05-15T10:09:53;28.91;24.55
75281;HTU21D;63874;47.230;39.620;2023-05-15T10:12:19;28.31;25.22
75281;HTU21D;63874;47.230;39.620;2023-05-15T10:14:46;27.89;25.80
75281;HTU21D;63874;47.230;39.620;2023-05-15T10:17:13;27.60;26.55
75281;HTU21D;63874;47.230;39.620;2023-05-15T10:19:40;27.84;27.04
75281;HTU21D;63874;47.230;39.620;2023-05-15T10:22:07;29.61;25.74
75281;HTU21D;63874;47.230;39.620;2023-05-15T10:24:37;31.33;23.43
75281;HTU21D;63874;47.230;39.620;2023-05-15T10:27:05;32.61;21.63
75281;HTU21D;63874;47.230;39.620;2023-05-15T10:29:33;33.31;20.40
75281;HTU21D;63874;47.230;39.620;2023-05-15T10:32:00;32.83;20.18
75281;HTU21D;63874;47.230;39.620;2023-05-15T10:34:26;32.10;21.05
75281;HTU21D;63874;47.230;39.620;2023-05-15T10:36:53;31.70;21.01
75281;HTU21D;63874;47.230;39.620;2023-05-15T10:39:20;31.22;21.47
75281;HTU21D;63874;47.230;39.620;2023-05-15T10:41:49;30.57;22.03
75281;HTU21D;63874;47.230;39.620;2023-05-15T10:44:15;29.89;22.69
75281;HTU21D;63874;47.230;39.620;2023-05-15T10:46:42;29.08;23.37
75281;HTU21D;63874;47.230;39.620;2023-05-15T10:49:08;28.52;23.72
75281;HTU21D;63874;47.230;39.620;2023-05-15T10:51:36;28.09;24.22
75281;HTU21D;63874;47.230;39.620;2023-05-15T10:54:04;27.76;24.51
75281;HTU21D;63874;47.230;39.620;2023-05-15T10:56:33;27.98;26.04
75281;HTU21D;63874;47.230;39.620;2023-05-15T10:59:07;29.63;25.33
75281;HTU21D;63874;47.230;39.620;2023-05-15T11:01:37;31.41;23.64
75281;HTU21D;63874;47.230;39.620;2023-05-15T11:04:14;32.19;22.31
75281;HTU21D;63874;47.230;39.620;2023-05-15T11:06:45;31.55;22.29
75281;HTU21D;63874;47.230;39.620;2023-05-15T11:11:55;32.28;22.90
75281;HTU21D;63874;47.230;39.620;2023-05-15T11:14:26;31.87;23.28
75281;HTU21D;63874;47.230;39.620;2023-05-15T11:19:21;30.13;25.25
75281;HTU21D;63874;47.230;39.620;2023-05-15T11:21:52;29.22;24.20
75281;HTU21D;63874;47.230;39.620;2023-05-15T11:27:19;27.16;25.70
75281;HTU21D;63874;47.230;39.620;2023-05-15T11:32:41;25.94;27.13
75281;HTU21D;63874;47.230;39.620;2023-05-15T11:35:18;25.56;27.70
75281;HTU21D;63874;47.230;39.620;2023-05-15T11:37:50;25.22;28.32
75281;HTU21D;63874;47.230;39.620;2023-05-15T11:40:23;25.02;28.18
75281;HTU21D;63874;47.230;39.620;2023-05-15T11:45:43;24.47;29.02
75281;HTU21D;63874;47.230;39.620;2023-05-15T11:48:12;24.28;29.37
75281;HTU21D;63874;47.230;39.620;2023-05-15T11:50:40;24.09;29.59
75281;HTU21D;63874;47.230;39.620;2023-05-15T11:53:07;23.94;29.89
75281;HTU21D;63874;47.230;39.620;2023-05-15T11:55:35;23.85;30.16
75281;HTU21D;63874;47.230;39.620;2023-05-15T11:58:02;23.79;30.32
75281;HTU21D;63874;47.230;39.620;2023-05-15T12:00:29;23.81;30.88
75281;HTU21D;63874;47.230;39.620;2023-05-15T12:02:55;23.81;31.74
75281;HTU21D;63874;47.230;39.620;2023-05-15T12:05:21;23.80;32.16
75281;HTU21D;63874;47.230;39.620;2023-05-15T12:07:48;23.72;32.77
75281;HTU21D;63874;47.230;39.620;2023-05-15T12:10:14;23.62;33.28
75281;HTU21D;63874;47.230;39.620;2023-05-15T12:12:42;23.52;33.87
75281;HTU21D;63874;47.230;39.620;2023-05-15T12:15:12;23.38;33.94
75281;HTU21D;63874;47.230;39.620;2023-05-15T12:17:40;23.25;34.47
75281;HTU21D;63874;47.230;39.620;2023-05-15T12:20:08;23.11;34.79
75281;HTU21D;63874;47.230;39.620;2023-05-15T12:22:38;22.98;34.86
75281;HTU21D;63874;47.230;39.620;2023-05-15T12:25:05;22.90;34.70
75281;HTU21D;63874;47.230;39.620;2023-05-15T12:27:33;22.79;34.66
75281;HTU21D;63874;47.230;39.620;2023-05-15T12:30:00;22.71;34.76
75281;HTU21D;63874;47.230;39.620;2023-05-15T12:32:27;22.70;34.74
75281;HTU21D;63874;47.230;39.620;2023-05-15T12:34:53;22.70;34.67
75281;HTU21D;63874;47.230;39.620;2023-05-15T12:37:19;22.73;34.76
75281;HTU21D;63874;47.230;39.620;2023-05-15T12:39:52;22.83;34.80
75281;HTU21D;63874;47.230;39.620;2023-05-15T12:42:18;22.97;34.69
75281;HTU21D;63874;47.230;39.620;2023-05-15T12:44:44;23.13;34.58
75281;HTU21D;63874;47.230;39.620;2023-05-15T12:47:13;23.35;34.25
75281;HTU21D;63874;47.230;39.620;2023-05-15T12:49:41;23.42;33.87
75281;HTU21D;63874;47.230;39.620;2023-05-15T12:52:08;23.34;33.87
75281;HTU21D;63874;47.230;39.620;2023-05-15T12:54:39;23.21;34.43
75281;HTU21D;63874;47.230;39.620;2023-05-15T12:57:08;23.05;35.11
75281;HTU21D;63874;47.230;39.620;2023-05-15T12:59:34;22.87;35.53
75281;HTU21D;63874;47.230;39.620;2023-05-15T13:02:00;22.78;36.07
75281;HTU21D;63874;47.230;39.620;2023-05-15T13:04:26;22.68;36.51
75281;HTU21D;63874;47.230;39.620;2023-05-15T13:06:52;22.61;36.92
75281;HTU21D;63874;47.230;39.620;2023-05-15T13:09:21;22.60;37.07
75281;HTU21D;63874;47.230;39.620;2023-05-15T13:11:48;22.56;37.41
75281;HTU21D;63874;47.230;39.620;2023-05-15T13:14:16;22.58;37.66
75281;HTU21D;63874;47.230;39.620;2023-05-15T13:16:44;22.57;37.79
75281;HTU21D;63874;47.230;39.620;2023-05-15T13:19:11;22.55;38.21
75281;HTU21D;63874;47.230;39.620;2023-05-15T13:21:37;22.53;38.21
75281;HTU21D;63874;47.230;39.620;2023-05-15T13:24:03;22.53;38.25
75281;HTU21D;63874;47.230;39.620;2023-05-15T13:26:29;22.52;38.18
75281;HTU21D;63874;47.230;39.620;2023-05-15T13:28:55;22.52;38.25
75281;HTU21D;63874;47.230;39.620;2023-05-15T13:31:21;22.53;38.29
75281;HTU21D;63874;47.230;39.620;2023-05-15T13:33:47;22.61;38.24
75281;HTU21D;63874;47.230;39.620;2023-05-15T13:36:13;22.70;38.27
75281;HTU21D;63874;47.230;39.620;2023-05-15T13:38:39;22.77;37.85
75281;HTU21D;63874;47.230;39.620;2023-05-15T13:41:05;22.79;37.78
75281;HTU21D;63874;47.230;39.620;2023-05-15T13:43:30;22.81;37.83
75281;HTU21D;63874;47.230;39.620;2023-05-15T13:45:56;22.83;37.69
75281;HTU21D;63874;47.230;39.620;2023-05-15T13:48:22;22.81;37.62
75281;HTU21D;63874;47.230;39.620;2023-05-15T13:50:48;22.78;37.53
75281;HTU21D;63874;47.230;39.620;2023-05-15T13:53:14;22.77;37.49
75281;HTU21D;63874;47.230;39.620;2023-05-15T13:55:42;22.72;37.38
75281;HTU21D;63874;47.230;39.620;2023-05-15T13:58:12;22.69;37.51
75281;HTU21D;63874;47.230;39.620;2023-05-15T14:00:38;22.67;37.78
75281;HTU21D;63874;47.230;39.620;2023-05-15T14:03:04;22.63;38.17
75281;HTU21D;63874;47.230;39.620;2023-05-15T14:05:31;22.55;38.57
75281;HTU21D;63874;47.230;39.620;2023-05-15T14:07:57;22.55;38.74
75281;HTU21D;63874;47.230;39.620;2023-05-15T14:10:23;22.60;38.97
75281;HTU21D;63874;47.230;39.620;2023-05-15T14:12:49;22.68;39.03
75281;HTU21D;63874;47.230;39.620;2023-05-15T14:15:15;22.81;39.11
75281;HTU21D;63874;47.230;39.620;2023-05-15T14:17:41;22.92;39.07
75281;HTU21D;63874;47.230;39.620;2023-05-15T14:20:08;22.92;38.97
75281;HTU21D;63874;47.230;39.620;2023-05-15T14:22:35;22.87;38.87
75281;HTU21D;63874;47.230;39.620;2023-05-15T14:25:02;22.79;39.03
75281;HTU21D;63874;47.230;39.620;2023-05-15T14:27:28;22.75;39.22
75281;HTU21D;63874;47.230;39.620;2023-05-15T14:29:54;22.66;39.33
75281;HTU21D;63874;47.230;39.620;2023-05-15T14:32:22;22.58;39.45
75281;HTU21D;63874;47.230;39.620;2023-05-15T14:34:48;22.51;39.78
75281;HTU21D;63874;47.230;39.620;2023-05-15T14:37:14;22.42;39.80
75281;HTU21D;63874;47.230;39.620;2023-05-15T14:39:40;22.34;39.82
75281;HTU21D;63874;47.230;39.620;2023-05-15T14:42:06;22.23;39.95
75281;HTU21D;63874;47.230;39.620;2023-05-15T14:44:40;22.17;40.08
75281;HTU21D;63874;47.230;39.620;2023-05-15T14:47:11;22.14;40.01
75281;HTU21D;63874;47.230;39.620;2023-05-15T14:49:41;22.19;40.01
75281;HTU21D;63874;47.230;39.620;2023-05-15T14:52:09;22.21;40.03
75281;HTU21D;63874;47.230;39.620;2023-05-15T14:54:36;22.22;40.01
75281;HTU21D;63874;47.230;39.620;2023-05-15T14:57:02;22.22;40.01
75281;HTU21D;63874;47.230;39.620;2023-05-15T14:59:28;22.21;40.20
75281;HTU21D;63874;47.230;39.620;2023-05-15T15:01:54;22.19;40.11
75281;HTU21D;63874;47.230;39.620;2023-05-15T15:04:20;22.12;40.24
75281;HTU21D;63874;47.230;39.620;2023-05-15T15:06:46;22.06;40.42
75281;HTU21D;63874;47.230;39.620;2023-05-15T15:09:12;22.03;40.38
75281;HTU21D;63874;47.230;39.620;2023-05-15T15:11:38;21.95;40.47
75281;HTU21D;63874;47.230;39.620;2023-05-15T15:14:04;21.88;40.52
75281;HTU21D;63874;47.230;39.620;2023-05-15T15:16:30;21.81;40.41
75281;HTU21D;63874;47.230;39.620;2023-05-15T15:18:56;21.76;40.80
75281;HTU21D;63874;47.230;39.620;2023-05-15T15:21:21;21.68;40.91
75281;HTU21D;63874;47.230;39.620;2023-05-15T15:23:47;21.63;41.00
75281;HTU21D;63874;47.230;39.620;2023-05-15T15:26:14;21.58;41.02
75281;HTU21D;63874;47.230;39.620;2023-05-15T15:28:40;21.55;41.04
75281;HTU21D;63874;47.230;39.620;2023-05-15T15:31:06;21.52;41.10
75281;HTU21D;63874;47.230;39.620;2023-05-15T15:33:31;21.49;41.44
75281;HTU21D;63874;47.230;39.620;2023-05-15T15:35:57;21.43;41.50
75281;HTU21D;63874;47.230;39.620;2023-05-15T15:38:23;21.38;41.55